Time;durP1;ratioP1;P1;durP2;ratioP2;P2;SDS_P1;SDS_P2;PMS_P1;PMS_P2;Temp;Humidity;BMP_temperature;BMP_pressure;BME280_temperature;BME280_humidity;BME280_pressure;Samples;Min_cycle;Max_cycle;Signal;HPM_P1;HPM_P2
2023/03/07 00:01:09;;;;;;;7.17;6.57;;;;;;;21.27;32.33;94266.19;6139823;28;109666;-57
2023/03/07 00:04:12;;;;;;;6.53;6.03;;;;;;;21.28;32.55;94254.44;6127185;28;109095;-58
2023/03/07 00:07:16;;;;;;;6.43;5.90;;;;;;;21.29;32.70;94255.22;6139786;28;109187;-59
2023/03/07 00:10:19;;;;;;;6.00;5.50;;;;;;;21.30;32.59;94275.41;6139844;28;110164;-58
2023/03/07 00:13:25;;;;;;;7.00;6.40;;;;;;;21.28;32.58;94266.94;6139567;28;109079;-58
2023/03/07 00:16:28;;;;;;;6.30;5.80;;;;;;;21.28;32.21;94249.09;6130219;28;109072;-58
2023/03/07 00:19:32;;;;;;;6.23;5.73;;;;;;;21.18;32.74;94238.84;6139538;28;109244;-58
2023/03/07 00:22:35;;;;;;;6.17;5.77;;;;;;;21.28;32.62;94254.44;6139563;28;110282;-57
2023/03/07 00:25:39;;;;;;;6.43;5.93;;;;;;;21.29;32.48;94245.34;6129126;28;110304;-57
2023/03/07 00:28:43;;;;;;;7.10;6.50;;;;;;;21.27;32.69;94242.22;6138783;28;110218;-59
2023/03/07 00:31:49;;;;;;;6.20;5.60;;;;;;;21.26;32.46;94240.66;6139742;28;111636;-58
2023/03/07 00:34:52;;;;;;;6.67;6.07;;;;;;;21.26;32.39;94222.03;6138482;28;109042;-57
2023/03/07 00:37:55;;;;;;;6.30;5.80;;;;;;;21.24;32.34;94215.47;6128657;28;110637;-58
2023/03/07 00:41:00;;;;;;;6.77;6.27;;;;;;;21.26;32.51;94219.38;6147242;28;110376;-58
2023/03/07 00:44:04;;;;;;;6.33;5.83;;;;;;;21.25;32.41;94209.06;6163082;28;108987;-58
2023/03/07 00:47:08;;;;;;;6.40;5.90;;;;;;;21.25;32.42;94204.50;6162992;28;108925;-58
2023/03/07 00:50:11;;;;;;;6.03;5.53;;;;;;;21.25;32.42;94217.81;6152267;28;109946;-58
2023/03/07 00:53:14;;;;;;;5.87;5.37;;;;;;;21.25;32.48;94209.84;6163181;28;109144;-58
2023/03/07 00:56:19;;;;;;;6.10;5.60;;;;;;;21.15;32.62;94186.25;6163456;28;110669;-58
2023/03/07 00:59:24;;;;;;;6.37;5.80;;;;;;;21.25;32.38;94201.84;6156545;28;109276;-58
2023/03/07 01:02:27;;;;;;;6.50;6.00;;;;;;;21.24;32.58;94199.53;6157950;28;110306;-58
2023/03/07 01:05:31;;;;;;;5.80;5.30;;;;;;;21.25;32.44;94211.72;6172461;22;109272;-63
2023/03/07 01:08:34;;;;;;;6.50;6.00;;;;;;;21.25;32.48;94204.50;6163033;28;110387;-62
2023/03/07 01:11:38;;;;;;;6.13;5.63;;;;;;;21.19;32.58;94193.28;6150973;28;109031;-62
2023/03/07 01:14:43;;;;;;;5.40;5.00;;;;;;;21.24;32.46;94205.63;6162374;28;109063;-62
2023/03/07 01:17:46;;;;;;;6.07;5.60;;;;;;;21.24;32.37;94200.28;6162448;28;109100;-62
2023/03/07 01:20:49;;;;;;;6.00;5.50;;;;;;;21.23;32.60;94198.75;6162734;28;110449;-62
2023/03/07 01:23:52;;;;;;;6.17;5.67;;;;;;;21.24;32.66;94210.94;6152162;28;109487;-62
2023/03/07 01:26:56;;;;;;;6.10;5.60;;;;;;;21.21;32.67;94211.59;6162691;28;109537;-62
2023/03/07 01:30:00;;;;;;;6.40;5.90;;;;;;;21.17;32.32;94203.47;6162544;28;109293;-62
2023/03/07 01:33:04;;;;;;;5.80;5.40;;;;;;;21.23;32.66;94206.72;6159309;28;108972;-63
2023/03/07 01:36:16;;;;;;;6.20;5.70;;;;;;;21.02;32.29;94176.59;6154652;28;111018;-62
2023/03/07 01:39:20;;;;;;;5.87;5.47;;;;;;;21.22;32.36;94194.53;6162491;28;109293;-63
2023/03/07 01:42:23;;;;;;;5.57;5.10;;;;;;;21.21;32.41;94174.34;6162255;28;109469;-63
2023/03/07 01:46:03;;;;;;;5.90;5.40;;;;;;;21.20;32.52;94180.75;6151647;28;109448;-64
2023/03/07 01:49:12;;;;;;;6.37;5.87;;;;;;;21.16;32.25;94179.81;6162162;28;109123;-64
2023/03/07 01:52:20;;;;;;;5.70;5.20;;;;;;;21.03;32.37;94162.19;6162176;28;109078;-64
2023/03/07 01:55:26;;;;;;;5.73;5.23;;;;;;;21.22;32.43;94197.19;6162076;28;109194;-64
2023/03/07 01:58:30;;;;;;;5.93;5.53;;;;;;;21.21;32.52;94195.63;6150564;28;110235;-64
2023/03/07 02:01:34;;;;;;;5.60;5.17;;;;;;;21.19;32.44;94185.31;6161906;28;108713;-64
2023/03/07 02:04:43;;;;;;;5.03;4.63;;;;;;;21.20;32.31;94188.75;6161809;28;109132;-63
2023/03/07 02:07:49;;;;;;;4.93;4.60;;;;;;;21.08;32.14;94172.66;6154397;28;111175;-63
2023/03/07 02:10:54;;;;;;;5.33;4.83;;;;;;;21.15;32.29;94178.25;6161032;28;111520;-62
2023/03/07 02:13:57;;;;;;;6.33;5.83;;;;;;;21.19;32.26;94179.19;6162365;28;110208;-67
2023/03/07 02:17:00;;;;;;;5.47;5.07;;;;;;;21.18;32.35;94183.75;6161996;28;110058;-66
2023/03/07 02:20:20;;;;;;;5.60;5.10;;;;;;;21.19;32.34;94176.53;6150614;28;109226;-66
2023/03/07 02:23:30;;;;;;;5.80;5.30;;;;;;;21.14;32.12;94164.19;6161806;28;109060;-62
2023/03/07 02:26:42;;;;;;;6.10;5.60;;;;;;;21.17;32.38;94168.06;6161660;28;110341;-62
2023/03/07 02:29:46;;;;;;;6.13;5.60;;;;;;;21.16;32.30;94169.19;6161511;28;109086;-62
2023/03/07 02:32:49;;;;;;;5.60;5.10;;;;;;;21.18;32.10;94164.34;6151913;28;109469;-63
2023/03/07 02:35:59;;;;;;;5.63;5.10;;;;;;;21.16;32.20;94156.66;6161411;28;109050;-62
2023/03/07 02:39:06;;;;;;;5.23;4.83;;;;;;;21.14;32.47;94166.84;6160790;28;110166;-62
2023/03/07 02:42:16;;;;;;;6.00;5.50;;;;;;;21.18;32.22;94169.66;6150373;28;109269;-61
2023/03/07 02:45:19;;;;;;;5.00;4.60;;;;;;;20.98;32.12;94139.19;6161362;28;110052;-62
2023/03/07 02:48:23;;;;;;;5.40;5.00;;;;;;;20.87;32.30;94111.41;6161796;28;108948;-64
2023/03/07 02:51:27;;;;;;;5.10;4.70;;;;;;;21.17;32.43;94162.75;6161287;28;109355;-61
2023/03/07 02:54:30;;;;;;;5.50;5.07;;;;;;;21.16;32.17;94179.81;6150120;28;109186;-62
2023/03/07 02:57:35;;;;;;;4.73;4.40;;;;;;;21.17;32.00;94184.03;6161013;28;108999;-61
2023/03/07 03:00:38;;;;;;;5.10;4.70;;;;;;;21.16;32.31;94177.16;6161170;28;109189;-61
2023/03/07 03:03:41;;;;;;;5.33;4.87;;;;;;;21.16;32.37;94174.50;6160119;28;109164;-61
2023/03/07 03:06:44;;;;;;;5.17;4.77;;;;;;;21.12;32.24;94155.75;6149934;28;110258;-61
2023/03/07 03:09:48;;;;;;;4.90;4.50;;;;;;;21.16;32.28;94166.50;6160009;28;109379;-61
2023/03/07 03:12:52;;;;;;;5.47;5.00;;;;;;;21.16;32.14;94166.50;6160747;28;109370;-61
2023/03/07 03:15:56;;;;;;;4.50;4.20;;;;;;;21.16;32.31;94174.50;6153599;28;109272;-61
2023/03/07 03:19:00;;;;;;;4.40;4.10;;;;;;;21.16;32.26;94172.63;6158516;28;109074;-61
2023/03/07 03:22:03;;;;;;;5.53;5.13;;;;;;;21.05;32.18;94160.78;6160681;28;109847;-61
2023/03/07 03:25:08;;;;;;;5.13;4.73;;;;;;;21.14;32.44;94190.78;6164433;28;110174;-61
2023/03/07 03:28:13;;;;;;;4.90;4.50;;;;;;;21.12;32.32;94165.59;6153039;28;109117;-62
2023/03/07 03:31:16;;;;;;;5.10;4.70;;;;;;;21.09;32.26;94166.25;6165250;28;110579;-61
2023/03/07 03:34:20;;;;;;;5.30;4.90;;;;;;;21.14;32.20;94177.47;6164712;28;108937;-65
2023/03/07 03:37:23;;;;;;;4.80;4.40;;;;;;;21.12;31.93;94170.94;6164909;28;110852;-62
2023/03/07 03:40:26;;;;;;;5.23;4.83;;;;;;;21.14;32.45;94168.72;6153596;28;109392;-64
2023/03/07 03:43:31;;;;;;;5.00;4.60;;;;;;;21.14;32.06;94168.72;6164760;28;110082;-63
2023/03/07 03:46:34;;;;;;;5.10;4.70;;;;;;;21.13;32.17;94167.94;6164559;28;109323;-62
2023/03/07 03:49:37;;;;;;;5.00;4.60;;;;;;;21.11;32.08;94185.31;6159268;28;109452;-61
2023/03/07 03:52:43;;;;;;;4.70;4.40;;;;;;;;;;6158554;28;110225;-61
2023/03/07 03:55:47;;;;;;;4.93;4.53;;;;;;;21.14;32.15;94182.03;6164856;28;110139;-62
2023/03/07 03:58:54;;;;;;;5.50;5.10;;;;;;;21.13;32.06;94185.78;6164459;28;110355;-62
2023/03/07 04:01:57;;;;;;;4.60;4.20;;;;;;;21.13;32.39;94180.47;6152865;28;109324;-62
2023/03/07 04:05:01;;;;;;;4.90;4.50;;;;;;;21.13;32.04;94188.44;6163329;28;110308;-61
2023/03/07 04:08:04;;;;;;;4.60;4.20;;;;;;;21.12;32.21;94198.31;6163831;28;109055;-61
2023/03/07 04:11:08;;;;;;;5.07;4.67;;;;;;;21.13;32.46;94188.44;6163442;28;111702;-61
2023/03/07 04:14:12;;;;;;;5.53;5.07;;;;;;;21.10;32.20;94183.78;6153932;28;111019;-62
2023/03/07 04:17:15;;;;;;;4.90;4.40;;;;;;;21.11;32.12;94188.00;6164008;28;109055;-63
2023/03/07 04:20:20;;;;;;;6.23;5.73;;;;;;;20.90;31.60;94185.22;6164163;28;109716;-61
2023/03/07 04:23:24;;;;;;;8.03;7.23;;;;;;;20.70;30.74;94184.06;6164016;28;109193;-61
2023/03/07 04:26:28;;;;;;;7.60;6.90;;;;;;;20.65;30.86;94189.50;6156150;28;112384;-61
2023/03/07 04:29:32;;;;;;;9.67;7.70;;;;;;;20.56;30.79;94181.59;6164046;28;109237;-61
2023/03/07 04:32:36;;;;;;;8.97;8.10;;;;;;;20.56;30.56;94186.13;6163898;28;109296;-61
2023/03/07 04:35:40;;;;;;;7.37;6.67;;;;;;;20.59;30.62;94180.94;6153175;28;109930;-61
2023/03/07 04:38:44;;;;;;;7.10;6.50;;;;;;;20.72;30.47;94199.69;6163713;28;109364;-63
2023/03/07 04:41:48;;;;;;;9.30;8.50;;;;;;;20.71;31.83;94198.91;6163387;28;108941;-64
2023/03/07 04:44:52;;;;;;;8.30;7.60;;;;;;;20.79;30.73;94200.75;6164494;28;108788;-62
2023/03/07 04:47:55;;;;;;;8.33;7.53;;;;;;;20.86;31.71;94195.72;6153954;28;110215;-63
2023/03/07 04:50:58;;;;;;;8.47;7.77;;;;;;;21.07;29.25;94195.06;6164110;28;109387;-64
2023/03/07 04:54:02;;;;;;;9.60;7.77;;;;;;;21.16;29.78;94198.44;6164553;28;110201;-62
2023/03/07 04:57:05;;;;;;;7.67;6.93;;;;;;;21.17;29.61;94202.66;6163774;28;109039;-63
2023/03/07 05:00:11;;;;;;;8.83;7.93;;;;;;;21.11;30.03;94209.25;6154082;28;110484;-64
2023/03/07 05:03:15;;;;;;;7.97;7.20;;;;;;;20.92;29.50;94181.16;6161772;28;109116;-64
2023/03/07 05:06:18;;;;;;;8.07;7.37;;;;;;;21.17;29.48;94221.28;6164202;28;109122;-64
2023/03/07 05:09:21;;;;;;;7.70;6.90;;;;;;;21.22;29.45;94207.81;6158870;28;109632;-66
2023/03/07 05:12:25;;;;;;;9.53;8.60;;;;;;;21.23;30.45;94196.06;6157481;28;110279;-65
2023/03/07 05:15:30;;;;;;;13.27;7.83;;;;;;;21.41;30.93;94216.19;6164664;28;111061;-65
2023/03/07 05:18:33;;;;;;;9.33;8.30;;;;;;;21.40;31.34;94213.84;6164549;28;109254;-64
2023/03/07 05:21:39;;;;;;;8.17;7.13;;;;;;;21.14;31.37;94216.59;6152270;28;112387;-62
2023/03/07 05:24:42;;;;;;;8.07;7.17;;;;;;;21.28;31.20;94222.50;6163113;28;110104;-63
2023/03/07 05:27:46;;;;;;;8.00;6.60;;;;;;;21.38;30.94;94211.50;6162993;28;110158;-63
2023/03/07 05:30:50;;;;;;;11.10;7.63;;;;;;;21.45;30.90;94211.75;6162630;28;109203;-63
2023/03/07 05:33:53;;;;;;;8.43;7.60;;;;;;;21.48;30.40;94208.44;6152344;28;109053;-61
2023/03/07 05:36:57;;;;;;;8.47;6.97;;;;;;;21.58;30.93;94214.53;6162686;28;110305;-61
2023/03/07 05:40:00;;;;;;;9.03;7.07;;;;;;;21.62;30.48;94216.22;6162696;28;110192;-65
2023/03/07 05:43:04;;;;;;;8.10;7.00;;;;;;;21.64;30.46;94219.31;6157333;28;110607;-61
2023/03/07 05:46:08;;;;;;;7.93;6.67;;;;;;;21.64;30.53;94223.88;6155606;28;110471;-62
2023/03/07 05:49:11;;;;;;;8.20;7.17;;;;;;;21.64;30.53;94227.31;6162214;28;111084;-62
2023/03/07 05:52:15;;;;;;;8.77;6.70;;;;;;;21.65;30.70;94230.75;6162290;28;110186;-61
2023/03/07 05:55:18;;;;;;;8.33;6.87;;;;;;;21.57;30.75;94224.41;6150550;28;109184;-62
2023/03/07 05:58:21;;;;;;;6.97;6.27;;;;;;;21.57;30.67;94229.72;6162207;28;109082;-62
2023/03/07 06:01:26;;;;;;;7.60;6.90;;;;;;;21.56;30.92;94241.47;6162094;28;108929;-62
2023/03/07 06:04:29;;;;;;;7.20;6.50;;;;;;;21.54;30.81;94242.91;6161664;28;109252;-62
2023/03/07 06:07:32;;;;;;;7.87;7.23;;;;;;;21.49;31.32;94244.63;6151290;28;110241;-63
2023/03/07 06:10:38;;;;;;;8.30;6.90;;;;;;;21.48;30.89;94248.38;6161932;28;109279;-63
2023/03/07 06:13:41;;;;;;;6.27;5.67;;;;;;;21.46;30.75;94244.47;6161135;28;109143;-63
2023/03/07 06:16:46;;;;;;;7.20;6.50;;;;;;;21.41;31.15;94236.69;6161894;28;110340;-62
2023/03/07 06:19:49;;;;;;;6.50;5.90;;;;;;;21.43;31.01;94243.25;6151559;28;110253;-62
2023/03/07 06:22:52;;;;;;;6.77;6.27;;;;;;;21.43;31.00;94247.78;6161802;28;109273;-62
2023/03/07 06:25:56;;;;;;;6.40;5.80;;;;;;;21.47;30.66;94249.47;6161859;28;110184;-63
2023/03/07 06:28:59;;;;;;;8.03;6.57;;;;;;;21.56;31.07;94248.69;6156207;28;110269;-62
2023/03/07 06:32:04;;;;;;;6.73;6.13;;;;;;;21.59;31.10;94242.69;6157336;28;111546;-62
2023/03/07 06:35:08;;;;;;;7.20;6.50;;;;;;;21.59;31.05;94242.69;6161738;28;110040;-62
2023/03/07 06:38:13;;;;;;;6.00;5.50;;;;;;;21.66;31.00;94246.41;6161503;28;109330;-62
2023/03/07 06:41:16;;;;;;;6.93;6.23;;;;;;;21.71;31.01;94248.91;6150611;28;109545;-62
2023/03/07 06:44:19;;;;;;;6.80;6.10;;;;;;;21.41;30.75;94197.53;6160867;28;110017;-62
2023/03/07 06:47:24;;;;;;;6.40;5.80;;;;;;;21.83;30.91;94250.88;6161373;28;110367;-62
2023/03/07 06:50:27;;;;;;;7.13;6.53;;;;;;;21.79;30.95;94248.06;6161080;28;109264;-62
2023/03/07 06:53:37;;;;;;;7.17;6.47;;;;;;;21.84;30.87;94254.31;6151011;28;108906;-62
2023/03/07 06:56:40;;;;;;;6.80;6.10;;;;;;;21.81;30.77;94258.38;6161425;28;109016;-62
2023/03/07 06:59:47;;;;;;;6.40;5.90;;;;;;;21.96;30.42;94273.06;6160078;28;109004;-62
2023/03/07 07:02:51;;;;;;;6.47;5.90;;;;;;;21.89;30.80;94262.94;6155342;28;109278;-62
2023/03/07 07:05:55;;;;;;;5.97;5.47;;;;;;;22.03;30.44;94268.00;6155594;28;109231;-62
2023/03/07 07:08:59;;;;;;;5.83;5.33;;;;;;;21.99;30.75;94269.75;6161139;28;109093;-62
2023/03/07 07:12:03;;;;;;;6.93;6.20;;;;;;;22.11;30.55;94267.94;6161050;28;109210;-62
2023/03/07 07:15:08;;;;;;;5.97;5.43;;;;;;;22.09;30.91;94248.06;6148861;28;108817;-62
2023/03/07 07:18:13;;;;;;;5.70;5.20;;;;;;;22.18;30.81;94258.63;6160994;28;108883;-62
2023/03/07 07:21:17;;;;;;;6.00;5.50;;;;;;;22.07;30.39;94239.63;6160720;28;109027;-62
2023/03/07 07:24:20;;;;;;;6.40;5.90;;;;;;;22.28;30.07;94258.25;6160554;28;109313;-62
2023/03/07 07:27:23;;;;;;;6.20;5.60;;;;;;;22.18;30.17;94251.44;6148935;28;109007;-62
2023/03/07 07:30:26;;;;;;;6.10;5.50;;;;;;;21.99;30.62;94232.44;6160685;28;109254;-62
2023/03/07 07:33:34;;;;;;;6.00;5.40;;;;;;;22.09;30.83;94253.38;6160398;28;110190;-62
2023/03/07 07:36:37;;;;;;;6.20;5.70;;;;;;;22.05;30.72;94263.91;6158214;28;109518;-62
2023/03/07 07:39:42;;;;;;;5.90;5.40;;;;;;;22.00;30.63;94255.31;6152595;28;110643;-63
2023/03/07 07:42:53;;;;;;;6.17;5.57;;;;;;;21.98;30.70;94262.84;6160192;28;109101;-62
2023/03/07 07:45:56;;;;;;;5.60;5.10;;;;;;;21.89;30.96;94265.59;6159960;28;108913;-62
2023/03/07 07:49:01;;;;;;;6.07;5.57;;;;;;;21.78;31.31;94248.38;6149598;28;110344;-62
2023/03/07 07:52:04;;;;;;;5.80;5.30;;;;;;;21.80;31.00;94264.81;6160327;28;109175;-62
2023/03/07 07:55:09;;;;;;;5.50;4.97;;;;;;;21.80;31.49;94256.81;6160264;28;108738;-62
2023/03/07 07:58:12;;;;;;;5.00;4.60;;;;;;;21.78;31.11;94265.13;6160152;28;108798;-62
2023/03/07 08:01:17;;;;;;;6.27;5.20;;;;;;;21.75;31.36;94268.47;6148751;28;109400;-62
2023/03/07 08:04:22;;;;;;;7.43;5.47;;;;;;;21.73;31.11;94269.88;6159233;28;109661;-62
2023/03/07 08:07:25;;;;;;;5.33;4.93;;;;;;;21.69;31.16;94266.31;6160254;28;109250;-62
2023/03/07 08:10:28;;;;;;;5.03;4.53;;;;;;;21.70;31.52;94271.31;6162407;28;109347;-62
2023/03/07 08:13:31;;;;;;;5.77;5.13;;;;;;;21.70;31.21;94270.53;6151934;28;109262;-61
2023/03/07 08:16:34;;;;;;;5.60;5.10;;;;;;;21.69;31.10;94277.75;6163353;28;110300;-62
2023/03/07 08:19:39;;;;;;;4.70;4.33;;;;;;;21.69;31.51;94271.63;6163959;28;109238;-62
2023/03/07 08:22:43;;;;;;;5.80;4.70;;;;;;;21.73;31.28;94269.88;6156795;28;110086;-63
2023/03/07 08:25:46;;;;;;;5.17;4.77;;;;;;;21.76;31.18;94267.34;6161213;28;109051;-62
2023/03/07 08:28:50;;;;;;;5.30;4.90;;;;;;;21.78;31.12;94256.38;6163815;28;110116;-64
2023/03/07 08:31:53;;;;;;;5.17;4.77;;;;;;;21.80;31.57;94256.81;6163527;28;109372;-62
2023/03/07 08:34:57;;;;;;;5.57;5.07;;;;;;;21.94;31.20;94273.38;6152157;28;109590;-61
2023/03/07 08:38:01;;;;;;;5.50;5.00;;;;;;;21.96;31.22;94270.41;6164013;28;109961;-62
2023/03/07 08:41:05;;;;;;;5.03;4.57;;;;;;;21.95;31.13;94266.94;6163410;28;109306;-62
2023/03/07 08:44:09;;;;;;;4.80;4.40;;;;;;;21.97;31.44;94270.06;6163573;28;110295;-61
2023/03/07 08:47:12;;;;;;;5.30;4.90;;;;;;;21.95;31.22;94266.94;6151270;28;109606;-62
2023/03/07 08:50:18;;;;;;;5.00;4.60;;;;;;;21.94;31.08;94268.06;6163409;28;110945;-62
2023/03/07 08:53:21;;;;;;;5.53;4.97;;;;;;;21.93;30.93;94263.06;6163141;28;109123;-61
2023/03/07 08:56:24;;;;;;;4.57;4.20;;;;;;;21.90;31.10;94269.81;6158598;28;109279;-62
2023/03/07 08:59:27;;;;;;;4.90;4.50;;;;;;;21.96;31.30;94265.06;6157565;28;109864;-62
2023/03/07 09:02:31;;;;;;;5.03;4.53;;;;;;;22.03;31.00;94266.13;6163432;28;112605;-62
2023/03/07 09:05:38;;;;;;;5.10;4.37;;;;;;;21.89;31.36;94236.28;6162791;28;109322;-62
2023/03/07 09:08:41;;;;;;;4.03;3.73;;;;;;;21.95;31.24;94227.00;6152149;28;109343;-62
2023/03/07 09:11:45;;;;;;;4.40;4.00;;;;;;;22.19;30.96;94260.22;6162780;28;109595;-61
2023/03/07 09:14:48;;;;;;;4.80;4.40;;;;;;;22.23;31.27;94250.47;6162847;28;108993;-62
2023/03/07 09:17:51;;;;;;;4.73;4.33;;;;;;;22.27;30.89;94251.38;6162122;28;109287;-62
2023/03/07 09:20:59;;;;;;;4.20;3.90;;;;;;;22.28;30.64;94250.25;6151208;28;110103;-62
2023/03/07 09:24:03;;;;;;;5.10;4.53;;;;;;;22.13;31.19;94219.66;6162580;28;109321;-62
2023/03/07 09:27:06;;;;;;;4.70;4.30;;;;;;;22.33;30.70;94247.38;6162786;28;109339;-62
2023/03/07 09:30:10;;;;;;;5.37;4.40;;;;;;;22.35;30.85;94247.88;6162827;28;110628;-62
2023/03/07 09:33:13;;;;;;;4.33;3.93;;;;;;;22.35;30.75;94245.97;6151980;28;109049;-62
2023/03/07 09:36:19;;;;;;;4.17;3.77;;;;;;;22.35;31.11;94237.97;6162439;28;110046;-62
2023/03/07 09:39:22;;;;;;;4.70;4.30;;;;;;;22.38;31.10;94233.88;6162721;28;109623;-62
2023/03/07 09:42:33;;;;;;;4.70;4.30;;;;;;;22.40;30.77;94231.66;6152971;28;109154;-62
2023/03/07 09:45:49;;;;;;;3.87;3.57;;;;;;;22.42;31.17;94232.88;6161820;28;109088;-62
2023/03/07 09:49:07;;;;;;;4.50;4.10;;;;;;;22.43;30.96;94225.69;6161327;28;109050;-62
2023/03/07 09:52:14;;;;;;;3.80;3.50;;;;;;;22.48;30.62;94214.03;6162385;28;109230;-62
2023/03/07 09:55:20;;;;;;;4.47;4.07;;;;;;;22.36;30.56;94204.13;6151345;28;110916;-62
2023/03/07 09:58:25;;;;;;;4.37;3.97;;;;;;;22.45;31.06;94215.47;6162283;28;109276;-63
2023/03/07 10:01:31;;;;;;;4.60;4.20;;;;;;;22.49;30.76;94219.03;6161922;28;109665;-62
2023/03/07 10:04:44;;;;;;;3.80;3.50;;;;;;;22.51;31.09;94210.69;6156443;28;109857;-62
2023/03/07 10:07:49;;;;;;;4.27;3.87;;;;;;;22.53;31.02;94211.94;6156042;28;110258;-62
2023/03/07 10:11:04;;;;;;;4.30;4.00;;;;;;;22.54;31.14;94207.41;6162275;28;109886;-62
2023/03/07 10:14:27;;;;;;;4.40;4.00;;;;;;;22.54;31.15;94192.19;6161927;28;109110;-62
2023/03/07 10:17:56;;;;;;;3.80;3.50;;;;;;;22.57;30.84;94196.09;6150842;28;110374;-62
2023/03/07 10:21:07;;;;;;;4.90;4.07;;;;;;;22.49;30.65;94184.38;6161127;28;110069;-62
2023/03/07 10:24:55;;;;;;;3.43;3.17;;;;;;;22.52;31.18;94183.72;6161923;28;108846;-62
2023/03/07 10:28:16;;;;;;;4.30;3.90;;;;;;;22.54;30.66;94180.72;6100084;28;110597;-64
2023/03/07 10:31:24;;;;;;;4.17;3.87;;;;;;;22.44;30.78;94163.25;6161465;28;109407;-62
2023/03/07 10:34:29;;;;;;;4.60;4.20;;;;;;;22.53;30.94;94169.28;6161348;28;109516;-62
2023/03/07 10:37:43;;;;;;;3.97;3.63;;;;;;;22.28;30.96;94139.09;6161532;28;109342;-62
2023/03/07 10:40:52;;;;;;;4.37;3.97;;;;;;;22.44;31.33;94165.91;6150316;28;109143;-62
2023/03/07 10:43:57;;;;;;;3.83;3.53;;;;;;;22.21;31.23;94130.09;6161632;28;109384;-62
2023/03/07 10:47:00;;;;;;;3.63;3.33;;;;;;;22.35;31.07;94151.91;6161175;28;109383;-62
2023/03/07 10:50:18;;;;;;;4.67;3.80;;;;;;;22.39;31.36;94150.91;6156510;28;109149;-62
2023/03/07 10:53:26;;;;;;;3.20;3.00;;;;;;;22.42;31.41;94146.81;6155277;28;110278;-63
2023/03/07 10:56:29;;;;;;;3.37;3.07;;;;;;;22.36;30.94;94132.16;6161043;28;109311;-62
2023/03/07 10:59:35;;;;;;;3.90;3.60;;;;;;;22.39;31.41;94134.91;6161304;28;110346;-62
2023/03/07 11:02:43;;;;;;;3.87;3.57;;;;;;;22.38;31.25;94125.38;6150146;28;109113;-63
2023/03/07 11:05:48;;;;;;;4.30;3.90;;;;;;;22.34;31.29;94124.44;6161058;28;110279;-62
2023/03/07 11:08:51;;;;;;;4.80;3.60;;;;;;;22.31;31.42;94119.00;6161153;28;109108;-62
2023/03/07 11:11:57;;;;;;;4.00;3.70;;;;;;;22.26;31.49;94109.34;6160803;28;111040;-62
2023/03/07 11:15:15;;;;;;;4.30;3.90;;;;;;;22.20;31.55;94085.91;6149885;28;110024;-62
2023/03/07 11:18:30;;;;;;;3.83;3.53;;;;;;;22.19;31.79;94095.00;6161330;28;109461;-62
2023/03/07 11:21:35;;;;;;;3.80;3.50;;;;;;;22.17;31.65;94083.88;6161083;28;110685;-62
2023/03/07 11:24:39;;;;;;;3.60;3.33;;;;;;;22.15;31.59;94081.53;6150431;28;109573;-62
2023/03/07 11:27:50;;;;;;;3.80;3.50;;;;;;;22.13;31.82;94080.31;6160187;28;110161;-62
2023/03/07 11:31:09;;;;;;;3.40;3.10;;;;;;;22.09;31.77;94066.88;6160703;28;109158;-63
2023/03/07 11:34:27;;;;;;;3.70;3.40;;;;;;;22.08;31.93;94070.66;6160561;28;109107;-62
2023/03/07 11:37:38;;;;;;;3.80;3.50;;;;;;;22.06;32.14;94068.31;6149652;28;112420;-62
2023/03/07 11:40:49;;;;;;;3.80;3.50;;;;;;;22.04;31.99;94062.53;6160485;28;109178;-62
2023/03/07 11:44:02;;;;;;;3.20;3.00;;;;;;;22.04;32.03;94061.78;6160981;28;109074;-62
2023/03/07 11:47:33;;;;;;;3.50;3.20;;;;;;;21.88;31.52;94031.53;6159909;28;110384;-62
2023/03/07 11:50:36;;;;;;;3.13;2.93;;;;;;;22.03;31.70;94058.31;6164001;28;109452;-62
2023/03/07 11:53:49;;;;;;;3.30;3.10;;;;;;;22.03;31.72;94054.88;6164278;28;109326;-62
2023/03/07 11:56:54;;;;;;;3.17;2.90;;;;;;;21.98;31.89;94041.75;6163632;28;109097;-62
2023/03/07 12:00:23;;;;;;;4.23;3.83;;;;;;;22.06;31.67;94052.34;6153398;28;110305;-62
2023/03/07 12:04:01;;;;;;;5.03;3.20;;;;;;;22.06;32.00;94051.56;6163753;28;109065;-62
2023/03/07 12:07:11;;;;;;;3.37;3.07;;;;;;;22.05;32.11;94050.00;6164337;28;109423;-62
2023/03/07 12:10:31;;;;;;;3.10;2.77;;;;;;;22.02;32.14;94038.13;6153384;28;109306;-62
2023/03/07 12:13:48;;;;;;;3.80;3.50;;;;;;;21.95;32.13;94027.22;6164573;28;110984;-62
2023/03/07 12:17:03;;;;;;;3.20;3.00;;;;;;;22.00;32.18;94031.53;6164387;28;109354;-62
2023/03/07 12:20:28;;;;;;;3.27;3.03;;;;;;;21.91;31.93;94015.66;6164599;28;110331;-62
2023/03/07 12:23:37;;;;;;;3.57;3.27;;;;;;;22.00;32.04;94032.31;6153829;28;110646;-62
2023/03/07 12:26:49;;;;;;;3.00;2.80;;;;;;;21.99;31.71;94020.09;6163851;28;109716;-62
2023/03/07 12:29:57;;;;;;;2.90;2.70;;;;;;;21.98;32.01;94021.22;6162904;28;109100;-62
2023/03/07 12:33:01;;;;;;;3.20;2.90;;;;;;;21.97;32.17;94017.00;6152890;28;109155;-63
2023/03/07 12:36:13;;;;;;;2.93;2.63;;;;;;;21.97;31.75;94009.00;6163746;28;110191;-62
2023/03/07 12:39:21;;;;;;;2.63;2.43;;;;;;;21.91;31.58;93998.91;6163840;28;109032;-62
2023/03/07 12:42:35;;;;;;;3.20;2.93;;;;;;;21.97;31.97;94001.03;6163725;28;109247;-62
2023/03/07 12:45:45;;;;;;;3.53;2.47;;;;;;;21.97;31.92;94009.00;6152796;28;109696;-62
2023/03/07 12:48:54;;;;;;;3.20;2.90;;;;;;;21.97;32.09;94008.22;6164008;28;113720;-62
2023/03/07 12:52:01;;;;;;;2.60;2.40;;;;;;;21.88;31.89;94005.69;6163837;28;109224;-66
2023/03/07 12:55:16;;;;;;;2.90;2.70;;;;;;;21.91;32.29;94006.91;6157929;28;109240;-62
2023/03/07 12:58:34;;;;;;;2.60;2.40;;;;;;;21.95;31.82;94007.78;6157627;28;108862;-62
2023/03/07 13:01:41;;;;;;;2.90;2.63;;;;;;;21.96;32.28;94001.34;6162127;28;109437;-62
2023/03/07 13:04:44;;;;;;;2.87;2.67;;;;;;;21.94;31.85;94011.56;6162729;28;110055;-62
2023/03/07 13:07:53;;;;;;;2.80;2.60;;;;;;;21.90;32.04;94008.78;6152341;28;109773;-62
2023/03/07 13:10:56;;;;;;;2.77;2.57;;;;;;;21.92;32.05;94011.13;6163059;28;110066;-62
2023/03/07 13:14:01;;;;;;;2.60;2.40;;;;;;;21.90;32.41;94002.69;6162858;28;109393;-62
2023/03/07 13:17:04;;;;;;;3.03;2.83;;;;;;;21.90;32.08;93995.47;6162962;28;109215;-62
2023/03/07 13:20:39;;;;;;;3.23;2.93;;;;;;;21.65;32.25;93956.53;6151445;28;109046;-62
2023/03/07 13:23:43;;;;;;;3.07;2.77;;;;;;;21.91;31.91;94005.00;6163142;28;109067;-62
2023/03/07 13:26:53;;;;;;;2.97;2.77;;;;;;;21.79;31.92;93980.97;6162830;28;109314;-64
2023/03/07 13:30:18;;;;;;;3.90;2.67;;;;;;;21.46;31.91;93923.19;6151522;28;109018;-64
2023/03/07 13:33:28;;;;;;;2.67;2.47;;;;;;;21.71;31.98;93964.00;6161890;28;109229;-68
2023/03/07 13:36:34;;;;;;;2.63;2.43;;;;;;;21.96;32.26;93996.03;6162715;28;109849;-68
2023/03/07 13:39:39;;;;;;;2.83;2.63;;;;;;;21.96;32.15;94002.13;6162499;28;109411;-62
2023/03/07 13:42:46;;;;;;;2.43;2.23;;;;;;;21.95;32.41;94005.13;6151266;28;109929;-64
2023/03/07 13:45:52;;;;;;;2.90;2.60;;;;;;;21.91;32.39;94005.00;6162085;28;109368;-62
2023/03/07 13:49:02;;;;;;;2.83;2.60;;;;;;;21.88;32.06;94010.22;6162476;28;108613;-62
2023/03/07 13:52:29;;;;;;;3.30;3.00;;;;;;;21.88;32.36;94004.91;6156559;28;109745;-62
2023/03/07 13:55:40;;;;;;;2.60;2.40;;;;;;;21.85;32.38;94011.66;6162043;28;109044;-62
2023/03/07 13:58:48;;;;;;;2.97;2.77;;;;;;;21.31;32.19;93929.13;6162558;28;109403;-63
2023/03/07 14:01:57;;;;;;;2.40;2.20;;;;;;;21.85;32.35;94009.00;6162076;28;109312;-62
2023/03/07 14:05:03;;;;;;;2.50;2.37;;;;;;;21.62;32.47;93984.59;6149822;28;109298;-63
2023/03/07 14:08:14;;;;;;;3.20;2.50;;;;;;;21.84;32.49;94014.63;6161798;28;109439;-62
2023/03/07 14:11:23;;;;;;;2.50;2.30;;;;;;;21.83;32.04;94016.50;6161985;28;109115;-61
2023/03/07 14:14:44;;;;;;;2.53;2.33;;;;;;;21.83;32.13;94008.53;6157015;28;109611;-61
2023/03/07 14:17:59;;;;;;;2.27;2.07;;;;;;;21.74;32.56;93992.63;6156575;28;111560;-62
2023/03/07 14:21:09;;;;;;;2.10;1.93;;;;;;;21.81;32.27;94003.50;6161952;28;109360;-61
2023/03/07 14:24:37;;;;;;;2.53;2.33;;;;;;;21.77;32.52;94001.84;6161749;28;109159;-62
2023/03/07 14:27:56;;;;;;;1.93;1.83;;;;;;;21.77;32.45;94001.84;6150370;28;109103;-61
2023/03/07 14:31:03;;;;;;;2.50;2.30;;;;;;;21.78;32.22;94001.50;6161573;28;110244;-61